createdAt,value
2018-09-18T00:00:01.345Z,31.4
2018-09-18T00:01:03.781Z,31.4
2018-09-18T00:02:05.941Z,31.4
2018-09-18T00:03:08.380Z,31.4
2018-09-18T00:04:10.812Z,31.5
2018-09-18T00:05:12.976Z,31.5
2018-09-18T00:06:15.419Z,31.5
2018-09-18T00:07:17.882Z,31.5
2018-09-18T00:08:20.320Z,31.5
2018-09-18T00:09:22.746Z,31.5
2018-09-18T00:10:24.907Z,31.5
2018-09-18T00:11:27.072Z,31.5
2018-09-18T00:12:29.498Z,31.5
2018-09-18T00:13:31.936Z,31.5
2018-09-18T00:14:34.366Z,31.5
2018-09-18T00:15:36.806Z,31.5
2018-09-18T00:16:39.239Z,31.5
2018-09-18T00:17:41.667Z,31.5
2018-09-18T00:18:44.096Z,31.5
2018-09-18T00:19:46.527Z,31.5
2018-09-18T00:20:48.977Z,31.5
2018-09-18T00:21:51.406Z,31.5
2018-09-18T00:22:53.564Z,31.5
2018-09-18T00:23:56.006Z,31.5
2018-09-18T00:24:58.436Z,31.5
2018-09-18T00:26:00.339Z,31.5
2018-09-18T00:27:02.505Z,31.5
2018-09-18T00:28:04.656Z,31.5
2018-09-18T00:29:07.107Z,31.5
2018-09-18T00:30:09.540Z,31.6
2018-09-18T00:31:11.965Z,31.5
2018-09-18T00:32:14.396Z,31.5
2018-09-18T00:33:16.837Z,31.6
2018-09-18T00:34:18.971Z,31.6
2018-09-18T00:35:21.423Z,31.6
2018-09-18T00:36:23.578Z,31.6
2018-09-18T00:37:26.015Z,31.6
2018-09-18T00:38:28.455Z,31.5
2018-09-18T00:39:30.896Z,31.5
2018-09-18T00:40:33.333Z,31.5
2018-09-18T00:41:35.757Z,31.5
2018-09-18T00:42:38.184Z,31.5
2018-09-18T00:43:40.640Z,31.5
2018-09-18T00:44:43.075Z,31.5
2018-09-18T00:45:45.507Z,31.5
2018-09-18T00:46:47.936Z,31.5
2018-09-18T00:47:50.366Z,31.5
2018-09-18T00:48:52.521Z,31.4
2018-09-18T00:49:54.955Z,31.4
2018-09-18T00:50:57.376Z,31.4
2018-09-18T00:51:59.844Z,31.4
2018-09-18T00:53:02.273Z,31.4
2018-09-18T00:54:04.706Z,31.4
2018-09-18T00:55:07.137Z,31.4
2018-09-18T00:56:09.578Z,31.4
2018-09-18T00:57:11.997Z,31.4
2018-09-18T00:58:14.422Z,31.3
2018-09-18T00:59:16.865Z,31.3
2018-09-18T01:00:19.298Z,31.3
2018-09-18T01:01:21.730Z,31.3
2018-09-18T01:02:23.879Z,31.3
2018-09-18T01:03:26.301Z,31.3
2018-09-18T01:04:28.736Z,31.3
2018-09-18T01:05:31.162Z,31.3
2018-09-18T01:06:33.602Z,31.3
2018-09-18T01:07:35.755Z,31.3
2018-09-18T01:08:38.183Z,31.3
2018-09-18T01:09:40.337Z,31.3
2018-09-18T01:10:42.779Z,31.3
2018-09-18T01:11:45.206Z,31.3
2018-09-18T01:12:47.634Z,31.3
2018-09-18T01:13:50.068Z,31.3
2018-09-18T01:14:52.242Z,31.2
2018-09-18T01:15:54.674Z,31.2
2018-09-18T01:16:57.106Z,31.2
2018-09-18T01:17:59.536Z,31.2
2018-09-18T01:19:01.964Z,31.2
2018-09-18T01:20:04.384Z,31.2
2018-09-18T01:21:06.815Z,31.2
2018-09-18T01:22:09.267Z,31.2
2018-09-18T01:23:11.710Z,31.2
2018-09-18T01:24:13.869Z,31.2
2018-09-18T01:25:16.289Z,31.2
2018-09-18T01:26:18.727Z,31.2
2018-09-18T01:27:21.152Z,31.2
2018-09-18T01:28:23.577Z,31.2
2018-09-18T01:29:26.003Z,31.2
2018-09-18T01:30:28.436Z,31.2
2018-09-18T01:31:30.864Z,31.2
2018-09-18T01:32:33.299Z,31.2
2018-09-18T01:33:35.726Z,31.2
2018-09-18T01:34:37.886Z,31.2
2018-09-18T01:35:40.316Z,31.2
2018-09-18T01:36:42.756Z,31.2
2018-09-18T01:37:45.183Z,31.2
2018-09-18T01:38:47.615Z,31.2
2018-09-18T01:39:50.049Z,31.2
2018-09-18T01:40:52.483Z,31.2
2018-09-18T01:41:54.906Z,31.1
2018-09-18T01:42:57.337Z,31.1
2018-09-18T01:43:59.778Z,31.2
2018-09-18T01:45:02.212Z,31.1
2018-09-18T01:46:04.642Z,31.1
2018-09-18T01:47:07.077Z,31.1
2018-09-18T01:48:09.500Z,31.1
2018-09-18T01:49:11.925Z,31.1
2018-09-18T01:50:14.355Z,31.1
2018-09-18T01:51:16.785Z,31.1
2018-09-18T01:52:19.259Z,31.1
2018-09-18T01:53:21.687Z,31.1
2018-09-18T01:54:24.112Z,31.1
2018-09-18T01:55:26.559Z,31.1
2018-09-18T01:56:28.991Z,31.1
2018-09-18T01:57:31.422Z,31.1
2018-09-18T01:58:33.847Z,31.1
2018-09-18T01:59:35.980Z,31.1
2018-09-18T02:00:38.407Z,31.1
2018-09-18T02:01:40.834Z,31.1
2018-09-18T02:02:43.274Z,31.1
2018-09-18T02:03:45.706Z,31.1
2018-09-18T02:04:48.139Z,31.1
2018-09-18T02:05:50.583Z,31.1
2018-09-18T02:06:53.014Z,31.1
2018-09-18T02:07:55.457Z,31.1
2018-09-18T02:08:57.894Z,31.1
2018-09-18T02:10:00.045Z,31.1
2018-09-18T02:11:02.476Z,31.1
2018-09-18T02:12:04.906Z,31.1
2018-09-18T02:13:07.337Z,31.1
2018-09-18T02:14:09.772Z,31.1
2018-09-18T02:15:12.214Z,31.1
2018-09-18T02:16:14.375Z,31.1
2018-09-18T02:17:16.813Z,31.1
2018-09-18T02:18:18.966Z,31.1
2018-09-18T02:19:21.395Z,31.1
2018-09-18T02:20:23.822Z,31.1
2018-09-18T02:21:25.976Z,31.1
2018-09-18T02:22:28.417Z,31.1
2018-09-18T02:23:30.846Z,31.1
2018-09-18T02:24:32.994Z,31.1
2018-09-18T02:25:35.433Z,31.1
2018-09-18T02:26:37.334Z,31.1
2018-09-18T02:27:39.496Z,31.1
2018-09-18T02:28:41.650Z,31.1
2018-09-18T02:29:44.085Z,31.1
2018-09-18T02:30:46.515Z,31.1
2018-09-18T02:31:48.947Z,31.1
2018-09-18T02:32:51.388Z,31.1
2018-09-18T02:33:53.816Z,31.1
2018-09-18T02:34:56.266Z,31.1
2018-09-18T02:35:58.709Z,31.1
2018-09-18T02:37:00.877Z,31.1
2018-09-18T02:38:03.309Z,31.1
2018-09-18T02:39:05.742Z,31.1
2018-09-18T02:40:08.184Z,31.1
2018-09-18T02:41:10.339Z,31.1
2018-09-18T02:42:12.767Z,31.1
2018-09-18T02:43:14.951Z,31.1
2018-09-18T02:44:17.383Z,31.1
2018-09-18T02:45:19.821Z,31.1
2018-09-18T02:46:22.250Z,31.1
2018-09-18T02:47:24.670Z,31.1
2018-09-18T02:48:27.122Z,31.1
2018-09-18T02:49:29.553Z,31.1
2018-09-18T02:50:32.001Z,31.1
2018-09-18T02:51:34.429Z,31.1
2018-09-18T02:52:36.899Z,31.1
2018-09-18T02:53:39.327Z,31.1
2018-09-18T02:54:41.455Z,31.1
2018-09-18T02:55:43.891Z,31.1
2018-09-18T02:56:46.048Z,31.1
2018-09-18T02:57:48.483Z,31.1
2018-09-18T02:58:50.910Z,31.1
2018-09-18T02:59:53.336Z,31.1
2018-09-18T03:00:55.762Z,31.1
2018-09-18T03:01:58.187Z,31.1
2018-09-18T03:03:00.615Z,31.1
2018-09-18T03:04:03.047Z,31.1
2018-09-18T03:05:05.476Z,31.1
2018-09-18T03:06:07.903Z,31.1
2018-09-18T03:07:10.056Z,31.1
2018-09-18T03:08:12.257Z,31.1
2018-09-18T03:09:14.692Z,31.1
2018-09-18T03:10:17.120Z,31.1
2018-09-18T03:11:19.925Z,31.1
2018-09-18T03:12:22.594Z,31.1
2018-09-18T03:13:25.017Z,31.1
2018-09-18T03:14:27.447Z,31.1
2018-09-18T03:15:29.877Z,31.1
2018-09-18T03:16:32.313Z,31.1
2018-09-18T03:17:34.742Z,31.1
2018-09-18T03:18:37.166Z,31.1
2018-09-18T03:19:39.607Z,31.1
2018-09-18T03:20:42.054Z,31.1
2018-09-18T03:21:44.207Z,31.1
2018-09-18T03:22:46.638Z,31.1
2018-09-18T03:23:49.066Z,31.1
2018-09-18T03:24:51.515Z,31.1
2018-09-18T03:25:53.946Z,31.1
2018-09-18T03:26:56.116Z,31.1
2018-09-18T03:27:58.277Z,31.1
2018-09-18T03:29:00.711Z,31.1
2018-09-18T03:30:02.841Z,31.1
2018-09-18T03:31:05.008Z,31.1
2018-09-18T03:32:07.437Z,31.1
2018-09-18T03:33:09.862Z,31.1
2018-09-18T03:34:12.313Z,31.1
2018-09-18T03:35:14.743Z,31.1
2018-09-18T03:36:17.178Z,31.1
2018-09-18T03:37:19.327Z,31.1
2018-09-18T03:38:21.504Z,31.1
2018-09-18T03:39:23.953Z,31.1
2018-09-18T03:40:26.370Z,31.1
2018-09-18T03:41:28.801Z,31.1
2018-09-18T03:42:31.037Z,31.1
2018-09-18T03:43:33.482Z,31.1
2018-09-18T03:44:35.923Z,31
2018-09-18T03:45:38.380Z,31
2018-09-18T03:46:40.827Z,31.1
2018-09-18T03:47:43.270Z,31.1
2018-09-18T03:48:45.706Z,31.1
2018-09-18T03:49:48.131Z,31.1
2018-09-18T03:50:50.592Z,31
2018-09-18T03:51:53.021Z,31
2018-09-18T03:52:55.681Z,31
2018-09-18T03:53:58.198Z,31
2018-09-18T03:55:00.654Z,31
2018-09-18T03:56:03.087Z,31
2018-09-18T03:57:05.259Z,31
2018-09-18T03:58:07.696Z,31
2018-09-18T03:59:10.162Z,31
2018-09-18T04:00:12.598Z,31
2018-09-18T04:01:14.760Z,31
2018-09-18T04:02:17.196Z,31
2018-09-18T04:03:19.642Z,31
2018-09-18T04:04:21.820Z,31
2018-09-18T04:05:24.270Z,31
2018-09-18T04:06:26.737Z,31
2018-09-18T04:07:28.889Z,31
2018-09-18T04:08:31.054Z,31
2018-09-18T04:09:33.489Z,31
2018-09-18T04:10:35.933Z,31
2018-09-18T04:11:38.355Z,31
2018-09-18T04:12:40.787Z,31
2018-09-18T04:13:42.941Z,31
2018-09-18T04:14:45.363Z,31
2018-09-18T04:15:47.798Z,31
2018-09-18T04:16:49.958Z,31
2018-09-18T04:17:52.388Z,31
2018-09-18T04:18:54.818Z,31
2018-09-18T04:19:57.255Z,31
2018-09-18T04:20:59.705Z,31
2018-09-18T04:22:01.877Z,31
2018-09-18T04:23:04.313Z,31
2018-09-18T04:24:06.745Z,31
2018-09-18T04:25:08.878Z,31
2018-09-18T04:26:11.311Z,31
2018-09-18T04:27:13.744Z,31
2018-09-18T04:28:16.178Z,31
2018-09-18T04:29:18.603Z,31
2018-09-18T04:30:21.033Z,31
2018-09-18T04:31:23.487Z,31
2018-09-18T04:32:25.643Z,31
2018-09-18T04:33:27.810Z,31
2018-09-18T04:34:29.691Z,31
2018-09-18T04:35:32.125Z,31
2018-09-18T04:36:34.562Z,31
2018-09-18T04:37:36.987Z,31
2018-09-18T04:38:39.121Z,31
2018-09-18T04:39:41.571Z,31
2018-09-18T04:40:44.045Z,31
2018-09-18T04:41:46.494Z,31
2018-09-18T04:42:48.925Z,31
2018-09-18T04:43:51.354Z,31
2018-09-18T04:44:53.507Z,31
2018-09-18T04:45:56.158Z,31
2018-09-18T04:46:58.897Z,31
2018-09-18T04:48:01.383Z,31
2018-09-18T04:49:03.912Z,31
2018-09-18T04:50:06.288Z,31
2018-09-18T04:51:08.787Z,31
2018-09-18T04:52:11.234Z,31
2018-09-18T04:53:13.655Z,31
2018-09-18T04:54:16.077Z,31
2018-09-18T04:55:18.513Z,31
2018-09-18T04:56:20.956Z,30.9
2018-09-18T04:57:23.389Z,31
2018-09-18T04:58:25.811Z,30.9
2018-09-18T04:59:27.976Z,30.9
2018-09-18T05:00:30.429Z,31
2018-09-18T05:01:32.858Z,30.9
2018-09-18T05:02:35.292Z,30.9
2018-09-18T05:03:37.724Z,30.9
2018-09-18T05:04:40.156Z,30.9
2018-09-18T05:05:42.606Z,30.9
2018-09-18T05:06:44.497Z,30.9
2018-09-18T05:07:46.945Z,30.9
2018-09-18T05:08:49.375Z,30.9
2018-09-18T05:09:51.806Z,30.9
2018-09-18T05:10:54.240Z,30.9
2018-09-18T05:11:56.670Z,30.9
2018-09-18T05:12:59.098Z,30.9
2018-09-18T05:14:01.703Z,30.9
2018-09-18T05:15:03.935Z,30.9
2018-09-18T05:16:06.114Z,30.9
2018-09-18T05:17:08.253Z,30.9
2018-09-18T05:18:10.680Z,30.9
2018-09-18T05:19:13.121Z,30.9
2018-09-18T05:20:15.554Z,30.9
2018-09-18T05:21:18.001Z,30.9
2018-09-18T05:22:20.163Z,30.9
2018-09-18T05:23:22.603Z,30.9
2018-09-18T05:24:25.034Z,30.9
2018-09-18T05:25:27.573Z,30.9
2018-09-18T05:26:30.082Z,30.9
2018-09-18T05:27:32.244Z,30.9
2018-09-18T05:28:34.677Z,30.9
2018-09-18T05:29:37.101Z,30.9
2018-09-18T05:30:39.548Z,30.9
2018-09-18T05:31:41.992Z,30.9
2018-09-18T05:32:44.137Z,30.9
2018-09-18T05:33:46.949Z,30.9
2018-09-18T05:34:49.539Z,30.9
2018-09-18T05:35:51.979Z,30.9
2018-09-18T05:36:54.406Z,30.9
2018-09-18T05:37:56.829Z,31
2018-09-18T05:38:59.277Z,30.9
2018-09-18T05:40:01.717Z,30.9
2018-09-18T05:41:04.153Z,30.9
2018-09-18T05:42:06.873Z,30.9
2018-09-18T05:43:09.689Z,30.9
2018-09-18T05:44:12.119Z,30.9
2018-09-18T05:45:14.550Z,30.9
2018-09-18T05:46:16.968Z,30.9
2018-09-18T05:47:19.427Z,31
2018-09-18T05:48:21.863Z,30.9
2018-09-18T05:49:24.298Z,30.9
2018-09-18T05:50:26.740Z,30.9
2018-09-18T05:51:28.932Z,30.9
2018-09-18T05:52:31.358Z,30.9
2018-09-18T05:53:33.777Z,30.9
2018-09-18T05:54:36.214Z,30.9
2018-09-18T05:55:38.647Z,30.9
2018-09-18T05:56:41.084Z,30.9
2018-09-18T05:57:43.530Z,30.9
2018-09-18T05:58:45.658Z,30.9
2018-09-18T05:59:48.099Z,30.9
2018-09-18T06:00:50.533Z,30.9
2018-09-18T06:01:52.982Z,30.9
2018-09-18T06:02:55.426Z,30.9
2018-09-18T06:03:57.589Z,30.9
2018-09-18T06:05:00.016Z,30.9
2018-09-18T06:06:02.446Z,30.9
2018-09-18T06:07:05.274Z,30.9
2018-09-18T06:08:07.498Z,30.9
2018-09-18T06:09:09.680Z,30.9
2018-09-18T06:10:12.116Z,30.9
2018-09-18T06:11:14.547Z,30.9
2018-09-18T06:12:16.983Z,30.9
2018-09-18T06:13:19.414Z,30.9
2018-09-18T06:14:21.850Z,30.9
2018-09-18T06:15:24.325Z,30.9
2018-09-18T06:16:26.491Z,30.9
2018-09-18T06:17:28.930Z,30.9
2018-09-18T06:18:31.355Z,30.9
2018-09-18T06:19:33.805Z,30.9
2018-09-18T06:20:36.247Z,30.9
2018-09-18T06:21:38.673Z,30.9
2018-09-18T06:22:41.095Z,30.9
2018-09-18T06:23:43.531Z,30.9
2018-09-18T06:24:45.961Z,30.9
2018-09-18T06:25:48.112Z,30.9
2018-09-18T06:26:50.535Z,30.9
2018-09-18T06:27:52.970Z,30.9
2018-09-18T06:28:55.388Z,30.9
2018-09-18T06:29:57.817Z,30.9
2018-09-18T06:31:00.253Z,30.9
2018-09-18T06:32:02.419Z,30.9
2018-09-18T06:33:04.845Z,30.9
2018-09-18T06:34:07.001Z,30.9
2018-09-18T06:35:09.448Z,30.9
2018-09-18T06:36:11.873Z,30.9
2018-09-18T06:37:14.323Z,30.9
2018-09-18T06:38:16.471Z,30.9
2018-09-18T06:39:18.905Z,30.9
2018-09-18T06:40:21.333Z,30.9
2018-09-18T06:41:23.764Z,30.9
2018-09-18T06:42:26.596Z,30.9
2018-09-18T06:43:29.327Z,30.9
2018-09-18T06:44:31.756Z,30.9
2018-09-18T06:45:34.245Z,30.9
2018-09-18T06:46:36.693Z,30.9
2018-09-18T06:47:39.142Z,30.9
2018-09-18T06:48:41.342Z,30.9
2018-09-18T06:49:43.773Z,30.9
2018-09-18T06:50:46.200Z,30.9
2018-09-18T06:51:48.625Z,30.9
2018-09-18T06:52:51.044Z,30.9
2018-09-18T06:53:53.477Z,30.9
2018-09-18T06:54:55.903Z,30.9
2018-09-18T06:55:58.064Z,30.9
2018-09-18T06:57:00.493Z,30.9
2018-09-18T06:58:02.925Z,30.9
2018-09-18T06:59:05.357Z,30.9
2018-09-18T07:00:07.791Z,30.9
2018-09-18T07:01:10.225Z,30.9
2018-09-18T07:02:12.674Z,30.9
2018-09-18T07:03:15.121Z,30.9
2018-09-18T07:04:17.547Z,30.9
2018-09-18T07:05:19.969Z,30.9
2018-09-18T07:06:22.400Z,30.9
2018-09-18T07:07:24.878Z,30.9
2018-09-18T07:08:27.306Z,30.9
2018-09-18T07:09:29.743Z,30.9
2018-09-18T07:10:32.172Z,30.9
2018-09-18T07:11:34.611Z,30.9
2018-09-18T07:12:37.047Z,30.9
2018-09-18T07:13:39.473Z,30.9
2018-09-18T07:14:41.898Z,30.9
2018-09-18T07:15:44.321Z,30.9
2018-09-18T07:16:46.751Z,30.9
2018-09-18T07:17:49.184Z,30.9
2018-09-18T07:18:51.648Z,30.9
2018-09-18T07:19:54.077Z,30.9
2018-09-18T07:20:56.226Z,30.9
2018-09-18T07:21:58.672Z,30.9
2018-09-18T07:23:01.104Z,30.9
2018-09-18T07:24:03.537Z,30.9
2018-09-18T07:25:06.009Z,30.9
2018-09-18T07:26:08.442Z,30.9
2018-09-18T07:27:10.876Z,30.9
2018-09-18T07:28:13.308Z,30.9
2018-09-18T07:29:15.522Z,30.9
2018-09-18T07:30:18.000Z,30.9
2018-09-18T07:31:20.428Z,30.9
2018-09-18T07:32:22.332Z,30.9
2018-09-18T07:33:24.767Z,30.9
2018-09-18T07:34:27.196Z,30.9
2018-09-18T07:35:29.627Z,30.9
2018-09-18T07:36:32.074Z,30.9
2018-09-18T07:37:34.524Z,30.9
2018-09-18T07:38:37.041Z,30.9
2018-09-18T07:39:39.509Z,30.9
2018-09-18T07:40:41.987Z,30.9
2018-09-18T07:41:44.431Z,30.9
2018-09-18T07:42:46.879Z,30.9
2018-09-18T07:43:49.304Z,30.9
2018-09-18T07:44:51.728Z,30.9
2018-09-18T07:45:54.155Z,30.9
2018-09-18T07:46:56.585Z,30.9
2018-09-18T07:47:59.018Z,30.9
2018-09-18T07:49:01.447Z,30.9
2018-09-18T07:50:03.878Z,30.9
2018-09-18T07:51:06.309Z,30.9
2018-09-18T07:52:08.763Z,30.9
2018-09-18T07:53:10.959Z,30.9
2018-09-18T07:54:13.394Z,30.9
2018-09-18T07:55:15.835Z,30.9
2018-09-18T07:56:17.978Z,30.9
2018-09-18T07:57:20.407Z,30.9
2018-09-18T07:58:22.850Z,30.9
2018-09-18T07:59:25.285Z,30.9
2018-09-18T08:00:27.723Z,30.9
2018-09-18T08:01:30.155Z,30.9
2018-09-18T08:02:32.588Z,30.9
2018-09-18T08:03:35.023Z,30.9
2018-09-18T08:04:37.173Z,30.9
2018-09-18T08:05:39.595Z,30.9
2018-09-18T08:06:42.019Z,30.9
2018-09-18T08:07:44.454Z,30.9
2018-09-18T08:08:46.882Z,30.9
2018-09-18T08:09:49.312Z,30.9
2018-09-18T08:10:51.836Z,30.9
2018-09-18T08:11:54.638Z,30.9
2018-09-18T08:12:56.798Z,30.9
2018-09-18T08:13:59.233Z,30.9
2018-09-18T08:15:01.666Z,30.9
2018-09-18T08:16:04.105Z,30.9
2018-09-18T08:17:06.267Z,30.9
2018-09-18T08:18:08.692Z,30.9
2018-09-18T08:19:11.387Z,30.9
2018-09-18T08:20:14.028Z,30.9
2018-09-18T08:21:16.456Z,30.9
2018-09-18T08:22:18.909Z,30.9
2018-09-18T08:23:21.348Z,30.9
2018-09-18T08:24:23.781Z,30.9
2018-09-18T08:25:26.363Z,30.9
2018-09-18T08:26:28.889Z,30.9
2018-09-18T08:27:31.310Z,30.9
2018-09-18T08:28:33.737Z,30.9
2018-09-18T08:29:36.159Z,30.9
2018-09-18T08:30:38.057Z,30.9
2018-09-18T08:31:40.503Z,30.9
2018-09-18T08:32:43.554Z,30.9
2018-09-18T08:33:46.260Z,30.9
2018-09-18T08:34:48.425Z,30.9
2018-09-18T08:35:50.857Z,30.9
2018-09-18T08:36:53.305Z,30.9
2018-09-18T08:37:55.737Z,30.9
2018-09-18T08:38:58.217Z,30.9
2018-09-18T08:40:01.130Z,30.9
2018-09-18T08:41:04.129Z,30.9
2018-09-18T08:42:06.557Z,30.9
2018-09-18T08:43:09.142Z,30.9
2018-09-18T08:44:11.590Z,30.9
2018-09-18T08:45:14.027Z,30.9
2018-09-18T08:46:16.779Z,30.9
2018-09-18T08:47:19.414Z,30.9
2018-09-18T08:48:21.583Z,30.9
2018-09-18T08:49:24.046Z,30.9
2018-09-18T08:50:26.532Z,30.9
2018-09-18T08:51:28.983Z,30.9
2018-09-18T08:52:31.148Z,30.9
2018-09-18T08:53:33.605Z,30.9
2018-09-18T08:54:36.273Z,30.9
2018-09-18T08:55:38.799Z,30.9
2018-09-18T08:56:41.223Z,30.9
2018-09-18T08:57:43.656Z,30.9
2018-09-18T08:58:46.111Z,30.9
2018-09-18T08:59:48.544Z,30.9
2018-09-18T09:00:50.979Z,30.9
2018-09-18T09:01:53.719Z,30.9
2018-09-18T09:02:56.368Z,30.9
2018-09-18T09:03:59.155Z,30.9
2018-09-18T09:05:01.631Z,30.9
2018-09-18T09:06:04.266Z,30.9
2018-09-18T09:07:06.469Z,30.9
2018-09-18T09:08:09.695Z,30.9
2018-09-18T09:09:13.020Z,30.8
2018-09-18T09:10:15.800Z,30.8
2018-09-18T09:11:18.395Z,30.8
2018-09-18T09:12:20.874Z,30.9
2018-09-18T09:13:23.345Z,30.8
2018-09-18T09:14:26.227Z,30.8
2018-09-18T09:15:28.894Z,30.9
2018-09-18T09:16:31.446Z,30.9
2018-09-18T09:17:34.004Z,30.9
2018-09-18T09:18:36.939Z,30.9
2018-09-18T09:19:39.810Z,30.9
2018-09-18T09:20:41.988Z,30.9
2018-09-18T09:21:44.790Z,30.9
2018-09-18T09:22:48.150Z,30.9
2018-09-18T09:23:50.995Z,30.9
2018-09-18T09:24:53.424Z,30.9
2018-09-18T09:25:55.931Z,30.9
2018-09-18T09:26:58.807Z,30.9
2018-09-18T09:28:01.609Z,30.9
2018-09-18T09:29:04.055Z,30.9
2018-09-18T09:30:06.768Z,30.9
2018-09-18T09:31:09.321Z,30.9
2018-09-18T09:32:11.997Z,30.9
2018-09-18T09:33:14.947Z,30.9
2018-09-18T09:34:17.416Z,30.9
2018-09-18T09:35:19.870Z,30.9
2018-09-18T09:36:22.332Z,30.9
2018-09-18T09:37:24.772Z,30.9
2018-09-18T09:38:27.204Z,30.9
2018-09-18T09:39:29.644Z,30.9
2018-09-18T09:40:32.081Z,30.9
2018-09-18T09:41:34.252Z,30.9
2018-09-18T09:42:36.695Z,30.9
2018-09-18T09:43:39.219Z,30.9
2018-09-18T09:44:41.847Z,30.9
2018-09-18T09:45:44.277Z,30.9
2018-09-18T09:46:46.710Z,30.9
2018-09-18T09:47:49.139Z,30.9
2018-09-18T09:48:51.605Z,30.9
2018-09-18T09:49:54.032Z,30.9
2018-09-18T09:50:56.465Z,30.9
2018-09-18T09:51:58.904Z,30.9
2018-09-18T09:53:01.338Z,30.9
2018-09-18T09:54:03.776Z,30.9
2018-09-18T09:55:05.925Z,30.9
2018-09-18T09:56:08.408Z,30.9
2018-09-18T09:57:10.567Z,30.9
2018-09-18T09:58:12.994Z,30.9
2018-09-18T09:59:15.436Z,30.9
2018-09-18T10:00:17.870Z,30.9
2018-09-18T10:01:20.299Z,30.9
2018-09-18T10:02:22.744Z,30.9
2018-09-18T10:03:25.168Z,30.9
2018-09-18T10:04:27.604Z,30.9
2018-09-18T10:05:29.766Z,30.9
2018-09-18T10:06:32.202Z,30.9
2018-09-18T10:07:34.618Z,30.9
2018-09-18T10:08:37.057Z,30.9
2018-09-18T10:09:39.486Z,30.9
2018-09-18T10:10:42.332Z,30.9
2018-09-18T10:11:45.047Z,30.9
2018-09-18T10:12:47.191Z,30.9
2018-09-18T10:13:49.618Z,30.9
2018-09-18T10:14:52.098Z,30.9
2018-09-18T10:15:54.239Z,30.9
2018-09-18T10:16:56.664Z,30.9
2018-09-18T10:17:59.136Z,30.9
2018-09-18T10:19:01.833Z,30.9
2018-09-18T10:20:04.257Z,30.9
2018-09-18T10:21:06.691Z,30.9
2018-09-18T10:22:09.114Z,30.9
2018-09-18T10:23:11.556Z,30.9
2018-09-18T10:24:13.729Z,30.9
2018-09-18T10:25:16.163Z,30.9
2018-09-18T10:26:19.610Z,30.9
2018-09-18T10:27:22.487Z,30.9
2018-09-18T10:28:24.925Z,30.9
2018-09-18T10:29:27.383Z,30.9
2018-09-18T10:30:29.596Z,30.9
2018-09-18T10:31:32.028Z,30.9
2018-09-18T10:32:34.643Z,30.9
2018-09-18T10:33:37.195Z,30.9
2018-09-18T10:34:39.627Z,30.9
2018-09-18T10:35:42.067Z,30.9
2018-09-18T10:36:44.524Z,30.9
2018-09-18T10:37:46.979Z,30.9
2018-09-18T10:38:49.416Z,30.9
2018-09-18T10:39:51.601Z,30.9
2018-09-18T10:40:54.575Z,30.9
2018-09-18T10:41:57.952Z,30.9
2018-09-18T10:43:01.072Z,30.9
2018-09-18T10:44:03.865Z,30.9
2018-09-18T10:45:06.310Z,30.9
2018-09-18T10:46:08.767Z,30.9
2018-09-18T10:47:10.924Z,30.9
2018-09-18T10:48:13.399Z,30.9
2018-09-18T10:49:15.884Z,30.9
2018-09-18T10:50:18.419Z,30.9
2018-09-18T10:51:20.868Z,30.9
2018-09-18T10:52:23.340Z,30.9
2018-09-18T10:53:25.849Z,30.9
2018-09-18T10:54:28.035Z,30.9
2018-09-18T10:55:30.923Z,30.9
2018-09-18T10:56:33.268Z,30.9
2018-09-18T10:57:35.705Z,30.9
2018-09-18T10:58:38.153Z,30.9
2018-09-18T10:59:40.576Z,30.9
2018-09-18T11:00:42.749Z,30.9
2018-09-18T11:01:45.382Z,30.9
2018-09-18T11:02:47.962Z,30.9
2018-09-18T11:03:50.417Z,30.9
2018-09-18T11:04:52.890Z,30.9
2018-09-18T11:05:55.359Z,30.9
2018-09-18T11:06:58.054Z,30.9
2018-09-18T11:08:00.977Z,30.9
2018-09-18T11:09:03.397Z,30.9
2018-09-18T11:10:05.723Z,30.9
2018-09-18T11:11:08.317Z,30.9
2018-09-18T11:12:10.788Z,30.9
2018-09-18T11:13:13.445Z,30.9
2018-09-18T11:14:16.237Z,30.9
2018-09-18T11:15:20.005Z,30.9
2018-09-18T11:16:22.765Z,30.9
2018-09-18T11:17:25.197Z,30.9
2018-09-18T11:18:27.580Z,30.9
2018-09-18T11:19:29.751Z,30.9
2018-09-18T11:20:32.199Z,30.9
2018-09-18T11:21:35.140Z,30.9
2018-09-18T11:22:37.976Z,30.9
2018-09-18T11:23:40.775Z,30.9
2018-09-18T11:24:43.540Z,30.9
2018-09-18T11:25:46.197Z,30.9
2018-09-18T11:26:48.369Z,30.9
2018-09-18T11:27:50.876Z,30.9
2018-09-18T11:28:53.362Z,30.9
2018-09-18T11:29:55.797Z,30.9
2018-09-18T11:30:58.256Z,30.9
2018-09-18T11:32:00.739Z,30.9
2018-09-18T11:33:03.496Z,31
2018-09-18T11:34:06.058Z,30.9
2018-09-18T11:35:08.569Z,30.9
2018-09-18T11:36:11.054Z,30.9
2018-09-18T11:37:13.481Z,31
2018-09-18T11:38:15.934Z,30.9
2018-09-18T11:39:18.363Z,30.9
2018-09-18T11:40:20.795Z,30.9
2018-09-18T11:41:23.237Z,30.9
2018-09-18T11:42:25.667Z,30.9
2018-09-18T11:43:28.098Z,31
2018-09-18T11:44:30.532Z,30.9
2018-09-18T11:45:33.298Z,31
2018-09-18T11:46:36.030Z,30.9
2018-09-18T11:47:38.320Z,31
2018-09-18T11:48:40.759Z,31
2018-09-18T11:49:43.189Z,31
2018-09-18T11:50:45.628Z,31
2018-09-18T11:51:48.064Z,31
2018-09-18T11:52:50.731Z,30.9
2018-09-18T11:53:53.458Z,31
2018-09-18T11:54:55.889Z,30.9
2018-09-18T11:55:58.317Z,31
2018-09-18T11:57:00.822Z,31
2018-09-18T11:58:03.405Z,31
2018-09-18T11:59:05.848Z,31
2018-09-18T12:00:08.277Z,31
2018-09-18T12:01:10.717Z,31
2018-09-18T12:02:13.154Z,31
2018-09-18T12:03:15.936Z,31
2018-09-18T12:04:18.321Z,31
2018-09-18T12:05:20.483Z,31
2018-09-18T12:06:22.917Z,31
2018-09-18T12:07:25.058Z,31
2018-09-18T12:08:27.497Z,31
2018-09-18T12:09:29.925Z,31
2018-09-18T12:10:32.365Z,31
2018-09-18T12:11:35.208Z,31
2018-09-18T12:12:37.717Z,31
2018-09-18T12:13:39.868Z,31
2018-09-18T12:14:42.294Z,31
2018-09-18T12:15:44.748Z,31
2018-09-18T12:16:47.323Z,31
2018-09-18T12:17:49.822Z,31
2018-09-18T12:18:52.259Z,31
2018-09-18T12:19:54.685Z,31
2018-09-18T12:20:56.848Z,31
2018-09-18T12:21:59.286Z,31
2018-09-18T12:23:01.721Z,31
2018-09-18T12:24:04.155Z,31
2018-09-18T12:25:06.586Z,31
2018-09-18T12:26:09.025Z,31
2018-09-18T12:27:11.456Z,31
2018-09-18T12:28:13.899Z,31
2018-09-18T12:29:16.324Z,31
2018-09-18T12:30:18.772Z,31
2018-09-18T12:31:21.208Z,31
2018-09-18T12:32:23.636Z,31
2018-09-18T12:33:26.081Z,31
2018-09-18T12:34:28.258Z,31
2018-09-18T12:35:31.190Z,31
2018-09-18T12:36:34.227Z,31
2018-09-18T12:37:36.678Z,31
2018-09-18T12:38:39.122Z,31
2018-09-18T12:39:41.286Z,31
2018-09-18T12:40:43.727Z,31
2018-09-18T12:41:46.392Z,31
2018-09-18T12:42:49.603Z,31
2018-09-18T12:43:52.272Z,31
2018-09-18T12:44:54.705Z,31
2018-09-18T12:45:57.142Z,31
2018-09-18T12:46:59.585Z,31
2018-09-18T12:48:02.279Z,31
2018-09-18T12:49:04.996Z,31
2018-09-18T12:50:08.562Z,31
2018-09-18T12:51:11.394Z,31
2018-09-18T12:52:13.831Z,31
2018-09-18T12:53:16.258Z,31
2018-09-18T12:54:18.688Z,31
2018-09-18T12:55:21.123Z,31
2018-09-18T12:56:23.037Z,31
2018-09-18T12:57:26.117Z,31
2018-09-18T12:58:29.529Z,31
2018-09-18T12:59:32.419Z,31
2018-09-18T13:00:34.928Z,31
2018-09-18T13:01:37.365Z,31
2018-09-18T13:02:39.517Z,31
2018-09-18T13:03:41.956Z,31
2018-09-18T13:04:44.389Z,31
2018-09-18T13:05:46.881Z,31
2018-09-18T13:06:49.776Z,31
2018-09-18T13:07:52.788Z,31
2018-09-18T13:08:55.393Z,31
2018-09-18T13:09:57.962Z,31
2018-09-18T13:11:00.509Z,31
2018-09-18T13:12:02.965Z,31
2018-09-18T13:13:05.488Z,31
2018-09-18T13:14:08.474Z,31
2018-09-18T13:15:11.354Z,31
2018-09-18T13:16:13.489Z,31
2018-09-18T13:17:15.895Z,31
2018-09-18T13:18:17.815Z,31
2018-09-18T13:19:20.286Z,31
2018-09-18T13:20:22.723Z,31
2018-09-18T13:21:25.206Z,31
2018-09-18T13:22:27.629Z,31
2018-09-18T13:23:30.057Z,31
2018-09-18T13:24:32.279Z,31
2018-09-18T13:25:34.708Z,31
2018-09-18T13:26:37.159Z,31
2018-09-18T13:27:39.806Z,31
2018-09-18T13:28:42.265Z,31
2018-09-18T13:29:44.704Z,31
2018-09-18T13:30:47.168Z,31
2018-09-18T13:31:49.617Z,31
2018-09-18T13:32:52.111Z,31
2018-09-18T13:33:54.545Z,31
2018-09-18T13:34:56.980Z,31
2018-09-18T13:35:59.439Z,31
2018-09-18T13:37:01.869Z,31
2018-09-18T13:38:04.305Z,31
2018-09-18T13:39:06.504Z,31
2018-09-18T13:40:08.939Z,31
2018-09-18T13:41:11.594Z,31
2018-09-18T13:42:13.787Z,31
2018-09-18T13:43:16.217Z,31
2018-09-18T13:44:18.658Z,31
2018-09-18T13:45:21.090Z,31
2018-09-18T13:46:23.377Z,31
2018-09-18T13:47:26.115Z,31
2018-09-18T13:48:28.564Z,31
2018-09-18T13:49:31.027Z,31
2018-09-18T13:50:33.209Z,31
2018-09-18T13:51:35.638Z,31
2018-09-18T13:52:37.803Z,31
2018-09-18T13:53:40.248Z,31
2018-09-18T13:54:42.424Z,31
2018-09-18T13:55:44.882Z,31
2018-09-18T13:56:47.687Z,31
2018-09-18T13:57:50.474Z,31
2018-09-18T13:58:52.914Z,31
2018-09-18T13:59:55.344Z,31
2018-09-18T14:00:57.858Z,31
2018-09-18T14:02:00.319Z,31
2018-09-18T14:03:02.797Z,31
2018-09-18T14:04:05.219Z,31
2018-09-18T14:05:07.672Z,31